HKEL

Eldoret International Airport

Eldoret, Kenya
METAR HKEL 182300Z 11009KT CAVOK 14/11 Q1024
Observed Flight Rules
Nov-18 @ 23:00 UTC (2 hours ago) Visual Flight Rules
Wind Visibility Clouds
110° at 9 knots 10,000+ meters
  • Clear skies
Temperatures Readings
Current 14°C / 57°F
Dewpoint 11°C / 52°F
Humidity 82%
Altimeter 30.24" Hg
Pressure 1024 hPa
Elevation 2133
METAR HKEL 182300Z 11009KT CAVOK 14/11 Q1024
Observed Flight Rules
Nov-18 @ 23:00 UTC
(2 hours ago)
VFR
Wind Visibility
110° at 9 knots 10,000+ meters
Clouds
  • Clear skies
Temperature Dewpoint
14°C / 57°F 11°C / 52°F
Humidity Altimeter Pressure
82% 30.24" Hg 1024 hPa